createdAt,value
2023-05-14T00:00:10.192Z,101407.53
2023-05-14T00:02:38.818Z,101397.59
2023-05-14T00:05:07.739Z,101407.09
2023-05-14T00:07:37.356Z,101404.19
2023-05-14T00:10:06.788Z,101405.78
2023-05-14T00:12:35.023Z,101404.50
2023-05-14T00:15:03.409Z,101404.94
2023-05-14T00:17:31.576Z,101406.53
2023-05-14T00:19:59.720Z,101398.41
2023-05-14T00:22:27.889Z,101406.66
2023-05-14T00:24:57.365Z,101397.06
2023-05-14T00:27:26.154Z,101404.88
2023-05-14T00:30:02.037Z,101411.06
2023-05-14T00:32:30.236Z,101400.88
2023-05-14T00:34:58.809Z,101408.69
2023-05-14T00:37:27.022Z,101412.81
2023-05-14T00:39:55.155Z,101406.13
2023-05-14T00:42:25.273Z,101401.13
2023-05-14T00:44:54.275Z,101403.16
2023-05-14T00:47:23.013Z,101412.25
2023-05-14T00:49:51.769Z,101409.97
2023-05-14T00:52:20.532Z,101405.63
2023-05-14T00:54:49.478Z,101410.34
2023-05-14T00:57:17.810Z,101412.19
2023-05-14T00:59:54.040Z,101407.00
2023-05-14T01:02:22.371Z,101405.53
2023-05-14T01:04:51.398Z,101404.72
2023-05-14T01:07:31.240Z,101405.91
2023-05-14T01:10:05.404Z,101410.69
2023-05-14T01:12:48.614Z,101411.06
2023-05-14T01:15:25.208Z,101406.88
2023-05-14T01:17:56.184Z,101408.09
2023-05-14T01:20:24.864Z,101409.13
2023-05-14T01:22:54.706Z,101412.00
2023-05-14T01:25:22.937Z,101412.41
2023-05-14T01:27:59.215Z,101417.13
2023-05-14T01:30:38.927Z,101416.47
2023-05-14T01:33:11.735Z,101412.50
2023-05-14T01:35:40.606Z,101413.53
2023-05-14T01:38:12.659Z,101414.72
2023-05-14T01:40:41.561Z,101414.13
2023-05-14T01:43:12.696Z,101414.13
2023-05-14T01:45:41.024Z,101417.00
2023-05-14T01:48:09.288Z,101427.91
2023-05-14T01:50:41.236Z,101423.56
2023-05-14T01:53:13.654Z,101405.31
2023-05-14T01:55:41.814Z,101416.06
2023-05-14T01:58:10.006Z,101420.59
2023-05-14T02:00:38.505Z,101420.78
2023-05-14T02:03:06.770Z,101412.13
2023-05-14T02:05:35.684Z,101422.84
2023-05-14T02:08:04.219Z,101419.53
2023-05-14T02:10:33.902Z,101420.34
2023-05-14T02:13:04.536Z,101422.41
2023-05-14T02:15:32.680Z,101421.94
2023-05-14T02:18:00.838Z,101424.16
2023-05-14T02:20:29.234Z,101423.72
2023-05-14T02:22:58.850Z,101427.59
2023-05-14T02:25:27.451Z,101426.31
2023-05-14T02:27:56.967Z,101428.72
2023-05-14T02:30:25.568Z,101434.47
2023-05-14T02:32:53.811Z,101442.06
2023-05-14T02:35:22.009Z,101437.88
2023-05-14T02:37:50.200Z,101428.34
2023-05-14T02:40:18.638Z,101424.00
2023-05-14T02:42:46.856Z,101430.59
2023-05-14T02:45:16.783Z,101422.09
2023-05-14T02:47:46.441Z,101430.50
2023-05-14T02:50:14.674Z,101432.53
2023-05-14T02:52:42.937Z,101433.19
2023-05-14T02:55:11.840Z,101423.75
2023-05-14T02:57:40.016Z,101427.75
2023-05-14T03:00:09.942Z,101432.63
2023-05-14T03:02:40.308Z,101426.63
2023-05-14T03:05:09.694Z,101431.81
2023-05-14T03:07:39.318Z,101423.56
2023-05-14T03:10:08.527Z,101420.59
2023-05-14T03:12:37.198Z,101425.22
2023-05-14T03:15:05.900Z,101421.31
2023-05-14T03:17:41.459Z,101424.19
2023-05-14T03:20:12.789Z,101426.59
2023-05-14T03:22:41.072Z,101425.84
2023-05-14T03:25:09.933Z,101431.50
2023-05-14T03:27:38.911Z,101422.50
2023-05-14T03:30:08.514Z,101415.53
2023-05-14T03:32:37.607Z,101419.78
2023-05-14T03:35:06.837Z,101408.75
2023-05-14T03:37:37.237Z,101420.00
2023-05-14T03:40:06.835Z,101416.34
2023-05-14T03:42:35.041Z,101417.25
2023-05-14T03:45:03.572Z,101420.44
2023-05-14T03:47:32.682Z,101419.69
2023-05-14T03:50:00.879Z,101425.31
2023-05-14T03:52:30.050Z,101423.56
2023-05-14T03:54:59.741Z,101421.09
2023-05-14T03:57:28.012Z,101413.75
2023-05-14T03:59:56.285Z,101419.53
2023-05-14T04:02:25.070Z,101416.91
2023-05-14T04:04:53.503Z,101418.63
2023-05-14T04:07:21.832Z,101417.66
2023-05-14T04:09:50.363Z,101415.19
2023-05-14T04:12:25.012Z,101413.78
2023-05-14T04:14:53.320Z,101414.03
2023-05-14T04:17:21.631Z,101411.34
2023-05-14T04:19:49.928Z,101405.34
2023-05-14T04:22:18.595Z,101398.16
2023-05-14T04:24:47.300Z,101402.34
2023-05-14T04:27:21.153Z,101397.81
2023-05-14T04:29:52.015Z,101402.22
2023-05-14T04:32:20.992Z,101394.78
2023-05-14T04:34:49.370Z,101397.13
2023-05-14T04:37:17.701Z,101401.50
2023-05-14T04:39:45.947Z,101399.28
2023-05-14T04:42:14.148Z,101402.00
2023-05-14T04:44:42.452Z,101403.28
2023-05-14T04:47:12.652Z,101396.66
2023-05-14T04:49:40.941Z,101395.84
2023-05-14T04:52:09.616Z,101395.84
2023-05-14T04:54:37.810Z,101400.03
2023-05-14T04:57:07.011Z,101396.50
2023-05-14T04:59:40.096Z,101398.59
2023-05-14T05:02:08.767Z,101402.31
2023-05-14T05:04:38.389Z,101402.69
2023-05-14T05:07:07.116Z,101405.41
2023-05-14T05:09:35.299Z,101401.44
2023-05-14T05:12:03.591Z,101406.22
2023-05-14T05:14:31.756Z,101407.00
2023-05-14T05:16:59.885Z,101408.84
2023-05-14T05:19:39.486Z,101407.13
2023-05-14T05:22:13.462Z,101404.56
2023-05-14T05:24:42.200Z,101399.53
2023-05-14T05:27:10.510Z,101401.56
2023-05-14T05:29:38.945Z,101397.34
2023-05-14T05:32:08.222Z,101407.72
2023-05-14T05:34:37.092Z,101395.59
2023-05-14T05:37:06.230Z,101399.09
2023-05-14T05:39:36.090Z,101405.03
2023-05-14T05:42:04.892Z,101397.69
2023-05-14T05:44:33.212Z,101403.47
2023-05-14T05:47:01.629Z,101395.06
2023-05-14T05:49:30.320Z,101392.28
2023-05-14T05:51:58.576Z,101397.81
2023-05-14T05:54:32.502Z,101399.19
2023-05-14T05:57:02.742Z,101401.38
2023-05-14T05:59:31.249Z,101395.47
2023-05-14T06:01:59.597Z,101394.75
2023-05-14T06:04:28.271Z,101402.50
2023-05-14T06:06:56.879Z,101393.84
2023-05-14T06:09:30.811Z,101394.72
2023-05-14T06:11:58.957Z,101394.78
2023-05-14T06:14:28.715Z,101391.28
2023-05-14T06:16:57.036Z,101393.22
2023-05-14T06:19:25.702Z,101392.72
2023-05-14T06:21:53.811Z,101387.34
2023-05-14T06:24:23.863Z,101388.19
2023-05-14T06:26:52.704Z,101399.06
2023-05-14T06:29:21.408Z,101392.59
2023-05-14T06:31:51.061Z,101393.66
2023-05-14T06:34:19.310Z,101396.63
2023-05-14T06:36:47.937Z,101396.16
2023-05-14T06:39:20.708Z,101399.16
2023-05-14T06:41:48.933Z,101401.03
2023-05-14T06:44:20.173Z,101399.97
2023-05-14T06:46:48.379Z,101406.56
2023-05-14T06:49:18.346Z,101402.25
2023-05-14T06:51:47.044Z,101403.03
2023-05-14T06:54:15.788Z,101409.31
2023-05-14T06:56:43.930Z,101411.47
2023-05-14T06:59:12.330Z,101414.66
2023-05-14T07:01:41.084Z,101413.78
2023-05-14T07:04:09.366Z,101405.78
2023-05-14T07:06:39.086Z,101410.84
2023-05-14T07:09:07.897Z,101407.72
2023-05-14T07:11:36.494Z,101399.72
2023-05-14T07:14:05.436Z,101395.53
2023-05-14T07:16:33.732Z,101403.66
2023-05-14T07:19:01.922Z,101406.53
2023-05-14T07:21:30.482Z,101398.44
2023-05-14T07:24:00.164Z,101399.31
2023-05-14T07:26:28.959Z,101396.69
2023-05-14T07:28:57.074Z,101388.91
2023-05-14T07:31:25.303Z,101392.78
2023-05-14T07:33:55.612Z,101386.25
2023-05-14T07:36:24.899Z,101383.34
2023-05-14T07:38:53.544Z,101385.66
2023-05-14T07:41:23.426Z,101381.16
2023-05-14T07:43:53.211Z,101370.72
2023-05-14T07:46:22.445Z,101368.63
2023-05-14T07:48:54.079Z,101363.28
2023-05-14T07:51:23.211Z,101366.41
2023-05-14T07:53:51.389Z,101367.25
2023-05-14T07:56:20.119Z,101362.19
2023-05-14T07:58:49.815Z,101364.19
2023-05-14T08:01:18.091Z,101362.34
2023-05-14T08:03:46.384Z,101361.78
2023-05-14T08:06:14.874Z,101369.22
2023-05-14T08:08:43.042Z,101360.00
2023-05-14T08:11:11.305Z,101361.78
2023-05-14T08:13:39.495Z,101357.22
2023-05-14T08:16:09.560Z,101357.03
2023-05-14T08:18:37.768Z,101355.75
2023-05-14T08:21:06.678Z,101351.13
2023-05-14T08:23:34.958Z,101353.91
2023-05-14T08:26:03.208Z,101350.44
2023-05-14T08:28:31.373Z,101345.25
2023-05-14T08:30:59.551Z,101350.72
2023-05-14T08:33:29.526Z,101340.88
2023-05-14T08:36:02.934Z,101340.09
2023-05-14T08:38:31.558Z,101342.91
2023-05-14T08:41:00.576Z,101336.88
2023-05-14T08:43:32.920Z,101337.44
2023-05-14T08:46:06.324Z,101336.94
2023-05-14T08:48:37.956Z,101346.81
2023-05-14T08:51:06.775Z,101335.91
2023-05-14T08:53:35.536Z,101341.94
2023-05-14T08:56:06.909Z,101336.53
2023-05-14T08:58:36.458Z,101336.81
2023-05-14T09:01:09.616Z,101330.53
2023-05-14T09:03:40.389Z,101328.63
2023-05-14T09:06:09.941Z,101327.00
2023-05-14T09:08:38.923Z,101330.31
2023-05-14T09:11:07.757Z,101322.72
2023-05-14T09:13:40.032Z,101314.50
2023-05-14T09:16:09.803Z,101321.88
2023-05-14T09:18:45.018Z,101320.28
2023-05-14T09:21:15.317Z,101306.88
2023-05-14T09:23:44.984Z,101320.56
2023-05-14T09:26:13.978Z,101316.19
2023-05-14T09:28:42.992Z,101308.25
2023-05-14T09:31:11.442Z,101304.13
2023-05-14T09:33:41.545Z,101313.72
2023-05-14T09:36:10.454Z,101311.00
2023-05-14T09:38:38.774Z,101310.16
2023-05-14T09:41:08.214Z,101303.03
2023-05-14T09:43:38.379Z,101301.13
2023-05-14T09:46:07.174Z,101312.34
2023-05-14T09:48:35.363Z,101297.03
2023-05-14T09:51:06.632Z,101299.22
2023-05-14T09:53:35.681Z,101301.97
2023-05-14T09:56:04.310Z,101288.81
2023-05-14T09:58:32.476Z,101283.59
2023-05-14T10:01:03.346Z,101282.50
2023-05-14T10:03:31.973Z,101283.63
2023-05-14T10:06:06.078Z,101280.88
2023-05-14T10:08:37.799Z,101280.06
2023-05-14T10:11:13.635Z,101278.16
2023-05-14T10:13:48.045Z,101276.22
2023-05-14T10:16:22.979Z,101270.72
2023-05-14T10:18:57.743Z,101266.91
2023-05-14T10:21:27.107Z,101258.91
2023-05-14T10:24:08.728Z,101257.28
2023-05-14T10:26:39.683Z,101256.44
2023-05-14T10:29:08.030Z,101250.69
2023-05-14T10:31:50.498Z,101256.44
2023-05-14T10:34:37.978Z,101254.22
2023-05-14T10:37:07.829Z,101252.28
2023-05-14T10:39:45.560Z,101248.97
2023-05-14T10:42:14.692Z,101247.59
2023-05-14T10:44:53.497Z,101244.56
2023-05-14T10:47:21.690Z,101244.84
2023-05-14T10:49:52.044Z,101242.09
2023-05-14T10:52:20.953Z,101234.97
2023-05-14T10:54:55.224Z,101238.50
2023-05-14T10:57:26.181Z,101233.56
2023-05-14T10:59:56.115Z,101223.41
2023-05-14T11:02:26.525Z,101222.34
2023-05-14T11:05:00.237Z,101222.06
2023-05-14T11:07:30.549Z,101225.06
2023-05-14T11:10:08.457Z,101216.00
2023-05-14T11:12:38.184Z,101211.59
2023-05-14T11:15:09.485Z,101207.19
2023-05-14T11:17:38.907Z,101206.69
2023-05-14T11:20:08.287Z,101203.41
2023-05-14T11:22:37.232Z,101200.44
2023-05-14T11:25:10.808Z,101191.34
2023-05-14T11:27:40.422Z,101198.47
2023-05-14T11:30:15.518Z,101194.06
2023-05-14T11:32:47.120Z,101186.13
2023-05-14T11:35:16.054Z,101186.66
2023-05-14T11:37:51.483Z,101180.88
2023-05-14T11:40:21.702Z,101180.84
2023-05-14T11:42:54.545Z,101183.03
2023-05-14T11:45:29.997Z,101173.97
2023-05-14T11:47:58.195Z,101173.38
2023-05-14T11:50:26.589Z,101166.50
2023-05-14T11:52:58.557Z,101172.50
2023-05-14T11:55:28.092Z,101160.13
2023-05-14T11:57:56.994Z,101159.56
2023-05-14T12:00:25.606Z,101165.03
2023-05-14T12:02:54.177Z,101158.38
2023-05-14T12:05:22.621Z,101158.09
2023-05-14T12:07:54.544Z,101151.22
2023-05-14T12:10:23.125Z,101148.72
2023-05-14T12:12:54.357Z,101142.88
2023-05-14T12:15:23.685Z,101139.31
2023-05-14T12:17:52.877Z,101140.97
2023-05-14T12:20:21.499Z,101131.03
2023-05-14T12:22:56.972Z,101130.16
2023-05-14T12:25:27.198Z,101137.19
2023-05-14T12:27:56.818Z,101131.59
2023-05-14T12:30:25.419Z,101126.41
2023-05-14T12:32:53.999Z,101124.19
2023-05-14T12:35:23.517Z,101118.81
2023-05-14T12:37:52.109Z,101130.78
2023-05-14T12:40:20.660Z,101125.19
2023-05-14T12:42:49.118Z,101121.19
2023-05-14T12:45:20.365Z,101112.38
2023-05-14T12:47:50.147Z,101116.81
2023-05-14T12:50:18.854Z,101108.03
2023-05-14T12:52:48.133Z,101105.09
2023-05-14T12:55:16.404Z,101106.50
2023-05-14T12:57:44.616Z,101098.69
2023-05-14T13:00:14.367Z,101094.72
2023-05-14T13:02:44.523Z,101094.56
2023-05-14T13:05:13.489Z,101091.97
2023-05-14T13:07:42.338Z,101099.34
2023-05-14T13:10:11.534Z,101087.34
2023-05-14T13:12:40.449Z,101088.78
2023-05-14T13:15:09.939Z,101081.94
2023-05-14T13:17:38.367Z,101076.44
2023-05-14T13:20:09.767Z,101070.06
2023-05-14T13:22:37.940Z,101070.47
2023-05-14T13:25:07.127Z,101065.50
2023-05-14T13:27:37.047Z,101061.00
2023-05-14T13:30:05.881Z,101055.91
2023-05-14T13:32:34.652Z,101058.53
2023-05-14T13:35:02.841Z,101051.91
2023-05-14T13:37:32.353Z,101046.28
2023-05-14T13:40:00.483Z,101045.75
2023-05-14T13:42:28.719Z,101041.31
2023-05-14T13:44:57.155Z,101049.31
2023-05-14T13:47:29.557Z,101041.00
2023-05-14T13:49:57.831Z,101040.84
2023-05-14T13:52:26.476Z,101032.66
2023-05-14T13:54:56.853Z,101038.94
2023-05-14T13:57:26.148Z,101027.72
2023-05-14T13:59:54.381Z,101026.38
2023-05-14T14:02:22.939Z,101023.06
2023-05-14T14:04:51.142Z,101022.75
2023-05-14T14:07:19.345Z,101019.19
2023-05-14T14:09:47.518Z,101015.34
2023-05-14T14:12:17.598Z,101010.06
2023-05-14T14:14:46.046Z,101006.50
2023-05-14T14:17:14.343Z,101004.38
2023-05-14T14:19:42.532Z,100996.19
2023-05-14T14:22:12.731Z,100997.00
2023-05-14T14:24:41.512Z,100989.06
2023-05-14T14:27:09.819Z,100984.44
2023-05-14T14:29:39.348Z,100987.72
2023-05-14T14:32:08.201Z,100974.50
2023-05-14T14:34:36.437Z,100974.50
2023-05-14T14:37:04.626Z,100983.56
2023-05-14T14:39:32.798Z,100973.34
2023-05-14T14:42:00.874Z,100972.25
2023-05-14T14:44:29.117Z,100969.78
2023-05-14T14:46:59.627Z,100971.75
2023-05-14T14:49:27.874Z,100967.91
2023-05-14T14:51:56.077Z,100965.16
2023-05-14T14:54:24.551Z,100965.22
2023-05-14T14:56:53.441Z,100962.47
2023-05-14T14:59:21.933Z,100957.88
2023-05-14T15:01:50.472Z,100959.72
2023-05-14T15:04:20.743Z,100954.47
2023-05-14T15:06:49.048Z,100946.25
2023-05-14T15:09:17.525Z,100948.47
2023-05-14T15:11:45.911Z,100943.63
2023-05-14T15:14:14.336Z,100946.47
2023-05-14T15:16:43.524Z,100940.09
2023-05-14T15:19:11.903Z,100939.28
2023-05-14T15:21:41.710Z,100931.84
2023-05-14T15:24:12.875Z,100935.72
2023-05-14T15:26:41.048Z,100928.22
2023-05-14T15:29:09.852Z,100935.31
2023-05-14T15:31:38.773Z,100929.56
2023-05-14T15:34:07.228Z,100922.09
2023-05-14T15:36:35.435Z,100922.56
2023-05-14T15:39:05.591Z,100919.66
2023-05-14T15:41:34.534Z,100916.38
2023-05-14T15:44:04.375Z,100920.75
2023-05-14T15:46:32.613Z,100926.41
2023-05-14T15:49:00.853Z,100916.81
2023-05-14T15:51:29.388Z,100928.38
2023-05-14T15:53:57.610Z,100925.81
2023-05-14T15:56:27.238Z,100918.50
2023-05-14T15:58:55.473Z,100919.34
2023-05-14T16:01:23.869Z,100913.38
2023-05-14T16:03:52.009Z,100918.00
2023-05-14T16:06:20.293Z,100910.66
2023-05-14T16:08:49.350Z,100915.28
2023-05-14T16:11:17.527Z,100913.38
2023-05-14T16:13:46.972Z,100910.81
2023-05-14T16:16:15.242Z,100910.25
2023-05-14T16:18:52.348Z,100912.41
2023-05-14T16:21:20.512Z,100907.88
2023-05-14T16:23:48.665Z,100897.09
2023-05-14T16:26:16.734Z,100891.78
2023-05-14T16:28:46.309Z,100903.28
2023-05-14T16:31:15.436Z,100897.72
2023-05-14T16:33:43.646Z,100901.66
2023-05-14T16:36:11.892Z,100896.78
2023-05-14T16:38:52.368Z,100899.97
2023-05-14T16:41:28.571Z,100889.41
2023-05-14T16:43:58.245Z,100896.13
2023-05-14T16:46:28.780Z,100891.16
2023-05-14T16:49:01.583Z,100887.25
2023-05-14T16:51:37.898Z,100890.59
2023-05-14T16:54:06.413Z,100882.59
2023-05-14T16:56:35.350Z,100888.97
2023-05-14T16:59:05.037Z,100887.56
2023-05-14T17:01:33.955Z,100894.72
2023-05-14T17:04:02.415Z,100879.94
2023-05-14T17:06:47.224Z,100889.13
2023-05-14T17:09:15.406Z,100886.25
2023-05-14T17:11:43.644Z,100886.06
2023-05-14T17:14:13.509Z,100894.03
2023-05-14T17:16:42.494Z,100887.44
2023-05-14T17:19:11.247Z,100890.88
2023-05-14T17:21:42.394Z,100892.19
2023-05-14T17:24:10.767Z,100887.56
2023-05-14T17:26:39.353Z,100889.53
2023-05-14T17:29:07.673Z,100895.47
2023-05-14T17:31:47.125Z,100890.66
2023-05-14T17:34:15.469Z,100888.94
2023-05-14T17:36:43.774Z,100892.25
2023-05-14T17:39:11.976Z,100894.03
2023-05-14T17:41:42.116Z,100900.00
2023-05-14T17:44:13.011Z,100894.69
2023-05-14T17:46:50.116Z,100891.63
2023-05-14T17:49:18.705Z,100897.53
2023-05-14T17:51:46.965Z,100894.59
2023-05-14T17:54:15.458Z,100896.03
2023-05-14T17:56:44.498Z,100899.91
2023-05-14T17:59:13.225Z,100895.84
2023-05-14T18:01:43.490Z,100898.31
2023-05-14T18:04:12.530Z,100898.50
2023-05-14T18:06:40.867Z,100899.72
2023-05-14T18:09:09.694Z,100898.16
2023-05-14T18:11:38.117Z,100898.72
2023-05-14T18:14:06.367Z,100905.88
2023-05-14T18:16:35.269Z,100906.78
2023-05-14T18:19:04.967Z,100903.34
2023-05-14T18:21:33.844Z,100906.25
2023-05-14T18:24:02.276Z,100915.00
2023-05-14T18:26:32.852Z,100911.69
2023-05-14T18:29:02.414Z,100900.69
2023-05-14T18:31:31.061Z,100912.34
2023-05-14T18:33:59.321Z,100918.03
2023-05-14T18:36:28.989Z,100923.34
2023-05-14T18:38:57.300Z,100922.56
2023-05-14T18:41:25.530Z,100923.16
2023-05-14T18:43:55.038Z,100936.53
2023-05-14T18:46:23.834Z,100926.63
2023-05-14T18:48:52.656Z,100933.81
2023-05-14T18:51:20.797Z,100939.03
2023-05-14T18:53:50.497Z,100943.16
2023-05-14T18:56:18.803Z,100934.22
2023-05-14T18:58:47.057Z,100936.19
2023-05-14T19:01:15.660Z,100944.94
2023-05-14T19:03:43.922Z,100939.31
2023-05-14T19:06:12.735Z,100939.38
2023-05-14T19:08:44.488Z,100944.25
2023-05-14T19:11:14.744Z,100942.16
2023-05-14T19:13:46.642Z,100944.13
2023-05-14T19:16:15.012Z,100945.78
2023-05-14T19:18:43.483Z,100952.63
2023-05-14T19:21:11.615Z,100955.44
2023-05-14T19:23:39.976Z,100955.97
2023-05-14T19:26:08.358Z,100947.34
2023-05-14T19:28:39.205Z,100940.09
2023-05-14T19:31:07.548Z,100940.47
2023-05-14T19:33:36.303Z,100935.81
2023-05-14T19:36:04.804Z,100936.28
2023-05-14T19:38:33.892Z,100943.25
2023-05-14T19:41:02.063Z,100939.06
2023-05-14T19:43:31.006Z,100930.00
2023-05-14T19:46:01.650Z,100932.63
2023-05-14T19:48:31.536Z,100934.88
2023-05-14T19:50:59.725Z,100933.16
2023-05-14T19:53:29.928Z,100932.94
2023-05-14T19:55:58.263Z,100925.16
2023-05-14T19:58:26.715Z,100939.94
2023-05-14T20:00:57.444Z,100929.13
2023-05-14T20:03:27.639Z,100936.09
2023-05-14T20:05:56.574Z,100938.00
2023-05-14T20:08:25.596Z,100933.16
2023-05-14T20:10:53.774Z,100930.81
2023-05-14T20:13:24.430Z,100932.34
2023-05-14T20:15:55.360Z,100936.00
2023-05-14T20:18:23.556Z,100930.06
2023-05-14T20:20:54.690Z,100936.44
2023-05-14T20:23:22.889Z,100926.19
2023-05-14T20:25:52.359Z,100934.41
2023-05-14T20:28:20.847Z,100926.06
2023-05-14T20:30:49.659Z,100930.50
2023-05-14T20:33:17.950Z,100932.28
2023-05-14T20:35:46.412Z,100921.75
2023-05-14T20:38:18.554Z,100931.03
2023-05-14T20:40:47.115Z,100928.44
2023-05-14T20:43:16.927Z,100921.47
2023-05-14T20:45:45.692Z,100934.28
2023-05-14T20:48:17.686Z,100927.31
2023-05-14T20:50:46.461Z,100924.91
2023-05-14T20:53:16.084Z,100927.06
2023-05-14T20:55:44.847Z,100930.91
2023-05-14T20:58:12.957Z,100929.34
2023-05-14T21:00:50.600Z,100918.03
2023-05-14T21:03:20.479Z,100922.69
2023-05-14T21:05:48.632Z,100919.94
2023-05-14T21:08:18.178Z,100918.19
2023-05-14T21:10:46.342Z,100920.81
2023-05-14T21:13:14.646Z,100919.66
2023-05-14T21:15:42.760Z,100915.63
2023-05-14T21:18:11.301Z,100918.22
2023-05-14T21:20:39.526Z,100911.41
2023-05-14T21:23:07.612Z,100907.75
2023-05-14T21:25:42.665Z,100914.00
2023-05-14T21:28:10.723Z,100911.38
2023-05-14T21:30:42.520Z,100909.31
2023-05-14T21:33:11.077Z,100904.00
2023-05-14T21:35:39.627Z,100898.66
2023-05-14T21:38:09.351Z,100899.53
2023-05-14T21:40:39.234Z,100895.44
2023-05-14T21:43:08.521Z,100904.63
2023-05-14T21:45:36.853Z,100894.34
2023-05-14T21:48:05.284Z,100885.88
2023-05-14T21:50:33.613Z,100888.84
2023-05-14T21:53:01.881Z,100888.28
2023-05-14T21:55:30.415Z,100889.53
2023-05-14T21:58:00.814Z,100888.72
2023-05-14T22:00:29.150Z,100885.03
2023-05-14T22:02:57.372Z,100882.38
2023-05-14T22:05:25.819Z,100885.91
2023-05-14T22:07:54.633Z,100882.22
2023-05-14T22:10:23.207Z,100880.97
2023-05-14T22:12:51.498Z,100882.66
2023-05-14T22:15:21.256Z,100883.09
2023-05-14T22:17:49.680Z,100878.53
2023-05-14T22:20:17.951Z,100878.97
2023-05-14T22:22:46.191Z,100870.72
2023-05-14T22:25:14.307Z,100870.31
2023-05-14T22:27:43.709Z,100869.69
2023-05-14T22:30:13.226Z,100865.56
2023-05-14T22:32:43.215Z,100865.97
2023-05-14T22:35:11.782Z,100862.69
2023-05-14T22:37:41.289Z,100859.38
2023-05-14T22:40:10.725Z,100854.63
2023-05-14T22:42:42.833Z,100855.03
2023-05-14T22:45:11.788Z,100860.25
2023-05-14T22:47:41.188Z,100858.16
2023-05-14T22:50:12.501Z,100859.63
2023-05-14T22:52:41.117Z,100860.88
2023-05-14T22:55:10.295Z,100846.19
2023-05-14T22:57:39.335Z,100853.84
2023-05-14T23:00:09.209Z,100861.50
2023-05-14T23:02:37.559Z,100852.63
2023-05-14T23:05:06.967Z,100853.03
2023-05-14T23:07:36.662Z,100849.09
2023-05-14T23:10:05.091Z,100845.19
2023-05-14T23:12:33.414Z,100846.41
2023-05-14T23:15:02.038Z,100843.50
2023-05-14T23:17:30.467Z,100838.56
2023-05-14T23:19:58.709Z,100836.28
2023-05-14T23:22:26.934Z,100835.03
2023-05-14T23:24:56.522Z,100828.22
2023-05-14T23:27:24.636Z,100826.75
2023-05-14T23:29:53.106Z,100828.03
2023-05-14T23:32:21.404Z,100824.72
2023-05-14T23:34:49.679Z,100824.28
2023-05-14T23:37:18.108Z,100816.84
2023-05-14T23:39:46.398Z,100807.97
2023-05-14T23:42:16.418Z,100805.06
2023-05-14T23:44:45.982Z,100803.00
2023-05-14T23:47:14.749Z,100793.09
2023-05-14T23:49:42.963Z,100789.97
2023-05-14T23:52:11.712Z,100785.88
2023-05-14T23:54:40.036Z,100779.03
2023-05-14T23:57:08.446Z,100779.44
2023-05-14T23:59:39.470Z,100778.19
